This is the latest recevied weather packets stored in our database for station/object DL1MMS-10. If no packets are shown the sender has not sent any weather packets the latest 10 day(s).
| Time | Temp. | Humidity | Pressure | Rain* | Wind** | Luminosity | Snow |
|---|---|---|---|---|---|---|---|
| 1778236313 | 25° C | 45% | 1016.7 hPa | 0 mm | - | - | - |
| 1778236013 | 25.56° C | 45% | 1016.7 hPa | 0 mm | - | - | - |
| 1778235713 | 24.44° C | 48% | 1016.7 hPa | 0 mm | - | - | - |
| 1778235412 | 22.78° C | 52% | 1016.7 hPa | 0 mm | - | - | - |
| 1778235112 | 20° C | 57% | 1016.7 hPa | 0 mm | - | - | - |
| 1778234812 | 18.89° C | 60% | 1016.7 hPa | 0 mm | - | - | - |
| 1778234512 | 17.78° C | 62% | 1016.7 hPa | 0 mm | - | - | - |
| 1778234211 | 17.78° C | 63% | 1016.8 hPa | 0 mm | - | - | - |
| 1778233911 | 17.78° C | 63% | 1016.8 hPa | 0 mm | - | - | - |
| 1778233611 | 17.22° C | 64% | 1016.9 hPa | 0 mm | - | - | - |
| 1778233311 | 16.67° C | 65% | 1016.9 hPa | 0 mm | - | - | - |
| 1778233010 | 16.11° C | 66% | 1016.9 hPa | 0 mm | - | - | - |
| 1778232710 | 16.11° C | 67% | 1016.9 hPa | 0 mm | - | - | - |
| 1778232410 | 15.56° C | 66% | 1016.9 hPa | 0 mm | - | - | - |
| 1778232109 | 15.56° C | 67% | 1016.9 hPa | 0 mm | - | - | - |
| 1778231809 | 15.56° C | 68% | 1017 hPa | 0 mm | - | - | - |
| 1778231509 | 15° C | 69% | 1017 hPa | 0 mm | - | - | - |
| 1778231208 | 15° C | 70% | 1017 hPa | 0 mm | - | - | - |
| 1778230908 | 14.44° C | 68% | 1017 hPa | 0 mm | - | - | - |
| 1778230608 | 14.44° C | 69% | 1017 hPa | 0 mm | - | - | - |
| 1778230308 | 13.89° C | 69% | 1017.1 hPa | 0 mm | - | - | - |
| 1778230007 | 13.89° C | 70% | 1016.9 hPa | 0 mm | - | - | - |
| 1778229707 | 13.89° C | 70% | 1016.9 hPa | 0 mm | - | - | - |
| 1778229407 | 13.89° C | 71% | 1016.9 hPa | 0 mm | - | - | - |
| 1778229106 | 13.89° C | 71% | 1016.9 hPa | 0 mm | - | - | - |
* Rain latest hour (hover to see other rain measurements)
** Current wind speed in m/s (hover to see current wind gust speed)